createdAt,value
2023-04-09T00:01:40.778Z,6.47
2023-04-09T00:04:08.291Z,6.50
2023-04-09T00:06:35.549Z,6.48
2023-04-09T00:09:02.816Z,6.44
2023-04-09T00:11:29.830Z,6.45
2023-04-09T00:13:58.585Z,6.41
2023-04-09T00:16:25.608Z,6.40
2023-04-09T00:18:53.247Z,6.36
2023-04-09T00:21:21.231Z,6.31
2023-04-09T00:23:48.668Z,6.27
2023-04-09T00:26:15.643Z,6.24
2023-04-09T00:28:42.970Z,6.23
2023-04-09T00:31:10.855Z,6.23
2023-04-09T00:33:38.232Z,6.22
2023-04-09T00:36:05.707Z,6.17
2023-04-09T00:38:33.199Z,6.21
2023-04-09T00:41:00.376Z,6.24
2023-04-09T00:43:27.708Z,6.25
2023-04-09T00:45:54.798Z,6.21
2023-04-09T00:48:23.069Z,6.18
2023-04-09T00:50:50.394Z,6.20
2023-04-09T00:53:18.808Z,6.21
2023-04-09T00:55:46.212Z,6.22
2023-04-09T00:58:14.703Z,6.22
2023-04-09T01:00:41.884Z,6.18
2023-04-09T01:03:09.530Z,6.19
2023-04-09T01:06:06.055Z,6.19
2023-04-09T01:09:08.364Z,6.15
2023-04-09T01:11:44.818Z,6.19
2023-04-09T01:14:35.073Z,6.19
2023-04-09T01:17:15.837Z,6.20
2023-04-09T01:20:01.845Z,6.19
2023-04-09T01:23:12.010Z,6.22
2023-04-09T01:25:57.705Z,6.15
2023-04-09T01:28:30.164Z,6.14
2023-04-09T01:31:13.756Z,6.14
2023-04-09T01:33:45.448Z,6.10
2023-04-09T01:36:14.970Z,6.13
2023-04-09T01:38:45.895Z,6.15
2023-04-09T01:41:19.541Z,6.20
2023-04-09T01:43:52.231Z,6.24
2023-04-09T01:46:21.830Z,6.26
2023-04-09T01:48:50.478Z,6.27
2023-04-09T01:51:18.966Z,6.27
2023-04-09T01:53:46.448Z,6.27
2023-04-09T01:56:13.652Z,6.30
2023-04-09T01:58:42.038Z,6.34
2023-04-09T02:01:31.304Z,6.34
2023-04-09T02:04:04.342Z,6.37
2023-04-09T02:06:48.653Z,6.36
2023-04-09T02:09:20.358Z,6.40
2023-04-09T02:11:51.088Z,6.44
2023-04-09T02:14:20.675Z,6.47
2023-04-09T02:16:48.023Z,6.43
2023-04-09T02:19:15.292Z,6.43
2023-04-09T02:21:42.711Z,6.47
2023-04-09T02:24:09.914Z,6.47
2023-04-09T02:26:37.270Z,6.47
2023-04-09T02:29:04.272Z,6.49
2023-04-09T02:31:31.575Z,6.48
2023-04-09T02:33:58.688Z,6.50
2023-04-09T02:36:27.711Z,6.48
2023-04-09T02:38:54.784Z,6.51
2023-04-09T02:41:22.231Z,6.53
2023-04-09T02:43:49.179Z,6.56
2023-04-09T02:46:16.422Z,6.59
2023-04-09T02:48:43.457Z,6.63
2023-04-09T02:51:10.919Z,6.65
2023-04-09T02:53:39.310Z,6.68
2023-04-09T02:56:06.939Z,6.69
2023-04-09T02:58:34.107Z,6.68
2023-04-09T03:01:01.323Z,6.69
2023-04-09T03:03:28.574Z,6.66
2023-04-09T03:05:55.836Z,6.64
2023-04-09T03:08:23.007Z,6.62
2023-04-09T03:10:50.367Z,6.57
2023-04-09T03:13:17.370Z,6.51
2023-04-09T03:15:45.340Z,6.46
2023-04-09T03:18:12.391Z,6.44
2023-04-09T03:20:39.988Z,6.45
2023-04-09T03:23:07.130Z,6.46
2023-04-09T03:25:34.528Z,6.47
2023-04-09T03:28:01.691Z,6.49
2023-04-09T03:30:30.323Z,6.48
2023-04-09T03:32:58.182Z,6.47
2023-04-09T03:35:25.735Z,6.47
2023-04-09T03:37:52.825Z,6.49
2023-04-09T03:40:20.178Z,6.51
2023-04-09T03:42:47.085Z,6.51
2023-04-09T03:45:14.440Z,6.45
2023-04-09T03:47:41.730Z,6.42
2023-04-09T03:50:09.669Z,6.38
2023-04-09T03:52:36.707Z,6.40
2023-04-09T03:55:05.149Z,6.38
2023-04-09T03:57:32.198Z,6.34
2023-04-09T03:59:59.433Z,6.35
2023-04-09T04:02:27.496Z,6.37
2023-04-09T04:04:55.014Z,6.39
2023-04-09T04:07:22.003Z,6.41
2023-04-09T04:09:49.226Z,6.40
2023-04-09T04:12:16.274Z,6.40
2023-04-09T04:14:43.752Z,6.44
2023-04-09T04:17:11.918Z,6.47
2023-04-09T04:19:39.159Z,6.52
2023-04-09T04:22:06.530Z,6.55
2023-04-09T04:24:33.792Z,6.58
2023-04-09T04:27:00.852Z,6.63
2023-04-09T04:29:29.187Z,6.65
2023-04-09T04:31:56.432Z,6.66
2023-04-09T04:34:23.806Z,6.65
2023-04-09T04:36:50.870Z,6.61
2023-04-09T04:39:18.227Z,6.57
2023-04-09T04:41:45.347Z,6.48
2023-04-09T04:44:12.753Z,6.43
2023-04-09T04:46:40.025Z,6.36
2023-04-09T04:49:07.473Z,6.32
2023-04-09T04:51:34.457Z,6.31
2023-04-09T04:54:01.812Z,6.31
2023-04-09T04:56:28.806Z,6.30
2023-04-09T04:58:56.165Z,6.28
2023-04-09T05:01:23.334Z,6.26
2023-04-09T05:03:50.725Z,6.27
2023-04-09T05:06:17.778Z,6.26
2023-04-09T05:08:45.726Z,6.26
2023-04-09T05:11:13.314Z,6.24
2023-04-09T05:13:40.793Z,6.27
2023-04-09T05:16:08.122Z,6.27
2023-04-09T05:18:36.205Z,6.25
2023-04-09T05:21:03.429Z,6.20
2023-04-09T05:23:31.018Z,6.24
2023-04-09T05:25:58.025Z,6.25
2023-04-09T05:28:25.526Z,6.28
2023-04-09T05:30:52.426Z,6.31
2023-04-09T05:33:19.885Z,6.39
2023-04-09T05:35:46.940Z,6.44
2023-04-09T05:38:14.167Z,6.46
2023-04-09T05:40:42.404Z,6.50
2023-04-09T05:43:09.847Z,6.50
2023-04-09T05:45:37.280Z,6.48
2023-04-09T05:48:04.884Z,6.50
2023-04-09T05:50:34.406Z,6.51
2023-04-09T05:53:08.199Z,6.55
2023-04-09T05:55:35.349Z,6.57
2023-04-09T05:58:02.596Z,6.59
2023-04-09T06:00:29.793Z,6.55
2023-04-09T06:02:57.234Z,6.57
2023-04-09T06:05:24.300Z,6.58
2023-04-09T06:07:51.751Z,6.61
2023-04-09T06:10:18.644Z,6.65
2023-04-09T06:12:45.930Z,6.69
2023-04-09T06:15:13.025Z,6.70
2023-04-09T06:17:40.577Z,6.76
2023-04-09T06:20:08.368Z,6.80
2023-04-09T06:22:35.835Z,6.83
2023-04-09T06:25:03.338Z,6.84
2023-04-09T06:27:30.937Z,6.77
2023-04-09T06:29:57.879Z,6.79
2023-04-09T06:32:25.357Z,6.82
2023-04-09T06:34:52.277Z,6.87
2023-04-09T06:37:19.585Z,6.90
2023-04-09T06:40:00.020Z,6.93
2023-04-09T06:42:28.089Z,6.96
2023-04-09T06:44:55.332Z,7.00
2023-04-09T06:47:22.690Z,7.01
2023-04-09T06:49:49.656Z,7.03
2023-04-09T06:52:17.201Z,7.04
2023-04-09T06:54:44.351Z,7.10
2023-04-09T06:57:11.647Z,7.18
2023-04-09T06:59:38.946Z,7.22
2023-04-09T07:02:06.912Z,7.24
2023-04-09T07:04:34.154Z,7.27
2023-04-09T07:07:02.397Z,7.34
2023-04-09T07:09:30.440Z,7.38
2023-04-09T07:11:57.896Z,7.40
2023-04-09T07:14:25.360Z,7.45
2023-04-09T07:16:53.008Z,7.49
2023-04-09T07:19:20.444Z,7.52
2023-04-09T07:21:48.376Z,7.51
2023-04-09T07:24:15.619Z,7.53
2023-04-09T07:26:42.938Z,7.56
2023-04-09T07:29:10.009Z,7.55
2023-04-09T07:31:37.449Z,7.60
2023-04-09T07:34:04.742Z,7.62
2023-04-09T07:36:32.640Z,7.67
2023-04-09T07:39:00.158Z,7.74
2023-04-09T07:41:27.338Z,7.78
2023-04-09T07:43:54.542Z,7.80
2023-04-09T07:46:22.062Z,7.84
2023-04-09T07:48:50.347Z,7.88
2023-04-09T07:51:18.547Z,7.86
2023-04-09T07:53:45.905Z,7.85
2023-04-09T07:56:14.241Z,7.83
2023-04-09T07:58:41.337Z,7.84
2023-04-09T08:01:09.346Z,7.89
2023-04-09T08:03:36.928Z,7.92
2023-04-09T08:06:04.956Z,7.96
2023-04-09T08:08:32.063Z,8.05
2023-04-09T08:11:00.023Z,8.10
2023-04-09T08:13:27.084Z,8.18
2023-04-09T08:15:54.524Z,8.23
2023-04-09T08:18:21.544Z,8.35
2023-04-09T08:20:48.848Z,8.49
2023-04-09T08:23:16.110Z,8.53
2023-04-09T08:25:43.684Z,8.57
2023-04-09T08:28:10.853Z,8.71
2023-04-09T08:30:38.174Z,8.88
2023-04-09T08:33:05.547Z,8.95
2023-04-09T08:35:33.530Z,8.94
2023-04-09T08:38:00.709Z,8.96
2023-04-09T08:40:34.268Z,8.97
2023-04-09T08:43:07.989Z,8.99
2023-04-09T08:45:35.661Z,9.03
2023-04-09T08:48:04.131Z,9.06
2023-04-09T08:50:33.925Z,9.08
2023-04-09T08:53:08.217Z,9.21
2023-04-09T08:55:37.416Z,9.40
2023-04-09T08:58:10.675Z,9.51
2023-04-09T09:00:39.102Z,9.63
2023-04-09T09:03:13.233Z,9.75
2023-04-09T09:05:46.519Z,9.77
2023-04-09T09:08:26.376Z,9.82
2023-04-09T09:10:53.812Z,9.94
2023-04-09T09:13:26.615Z,10.05
2023-04-09T09:16:13.987Z,10.20
2023-04-09T09:18:44.133Z,10.26
2023-04-09T09:21:17.814Z,10.21
2023-04-09T09:23:46.224Z,10.20
2023-04-09T09:26:24.858Z,10.19
2023-04-09T09:28:53.036Z,10.14
2023-04-09T09:31:22.823Z,10.13
2023-04-09T09:33:51.242Z,10.21
2023-04-09T09:36:35.453Z,10.31
2023-04-09T09:39:05.341Z,10.34
2023-04-09T09:41:32.648Z,10.46
2023-04-09T09:44:10.937Z,10.44
2023-04-09T09:46:45.077Z,10.57
2023-04-09T09:49:14.271Z,10.59
2023-04-09T09:51:43.766Z,10.72
2023-04-09T09:54:13.061Z,10.78
2023-04-09T09:56:44.075Z,10.86
2023-04-09T09:59:24.882Z,10.98
2023-04-09T10:02:06.041Z,10.98
2023-04-09T10:04:39.061Z,11.19
2023-04-09T10:07:07.753Z,11.25
2023-04-09T10:09:39.815Z,11.41
2023-04-09T10:12:09.812Z,11.52
2023-04-09T10:14:39.657Z,11.49
2023-04-09T10:17:07.675Z,11.57
2023-04-09T10:19:45.955Z,11.67
2023-04-09T10:22:21.549Z,11.74
2023-04-09T10:24:49.842Z,11.82
2023-04-09T10:27:17.667Z,11.99
2023-04-09T10:29:47.830Z,12.07
2023-04-09T10:32:21.787Z,12.14
2023-04-09T10:34:50.712Z,12.15
2023-04-09T10:37:25.419Z,12.29
2023-04-09T10:39:53.665Z,12.46
2023-04-09T10:42:30.445Z,12.59
2023-04-09T10:45:10.779Z,12.72
2023-04-09T10:47:41.584Z,12.64
2023-04-09T10:50:25.722Z,12.77
2023-04-09T10:53:00.488Z,12.82
2023-04-09T10:55:36.463Z,12.83
2023-04-09T10:58:06.433Z,12.76
2023-04-09T11:00:42.906Z,12.74
2023-04-09T11:03:32.707Z,12.67
2023-04-09T11:06:10.577Z,12.64
2023-04-09T11:08:39.147Z,12.67
2023-04-09T11:11:06.654Z,12.80
2023-04-09T11:13:34.495Z,12.85
2023-04-09T11:16:04.326Z,12.85
2023-04-09T11:18:33.962Z,12.96
2023-04-09T11:21:06.293Z,12.97
2023-04-09T11:23:34.398Z,12.96
2023-04-09T11:26:02.536Z,12.80
2023-04-09T11:28:29.823Z,12.88
2023-04-09T11:30:56.820Z,12.86
2023-04-09T11:33:33.624Z,12.84
2023-04-09T11:36:01.764Z,12.64
2023-04-09T11:38:31.956Z,12.58
2023-04-09T11:40:59.019Z,12.56
2023-04-09T11:43:26.314Z,12.56
2023-04-09T11:45:53.616Z,12.46
2023-04-09T11:48:23.415Z,12.34
2023-04-09T11:50:51.053Z,12.22
2023-04-09T11:53:23.806Z,12.17
2023-04-09T11:55:53.311Z,12.07
2023-04-09T11:58:26.342Z,11.84
2023-04-09T12:00:56.311Z,11.65
2023-04-09T12:03:37.038Z,11.67
2023-04-09T12:06:07.091Z,11.67
2023-04-09T12:08:36.425Z,11.73
2023-04-09T12:11:13.092Z,11.73
2023-04-09T12:13:43.384Z,11.71
2023-04-09T12:16:12.739Z,11.71
2023-04-09T12:18:41.230Z,11.78
2023-04-09T12:21:08.438Z,11.76
2023-04-09T12:23:35.790Z,11.64
2023-04-09T12:26:02.921Z,11.64
2023-04-09T12:28:30.910Z,11.35
2023-04-09T12:30:59.533Z,11.47
2023-04-09T12:33:27.305Z,11.54
2023-04-09T12:35:54.323Z,11.67
2023-04-09T12:38:21.694Z,11.69
2023-04-09T12:40:48.854Z,11.74
2023-04-09T12:43:16.117Z,11.67
2023-04-09T12:45:43.121Z,11.49
2023-04-09T12:48:10.701Z,11.23
2023-04-09T12:50:37.851Z,11.25
2023-04-09T12:53:05.416Z,11.26
2023-04-09T12:55:32.875Z,11.29
2023-04-09T12:58:01.967Z,11.37
2023-04-09T13:00:31.286Z,11.16
2023-04-09T13:02:59.170Z,11.27
2023-04-09T13:05:26.527Z,11.32
2023-04-09T13:07:53.849Z,11.40
2023-04-09T13:10:21.002Z,11.37
2023-04-09T13:12:48.499Z,11.29
2023-04-09T13:15:15.834Z,11.33
2023-04-09T13:17:43.526Z,11.36
2023-04-09T13:20:10.880Z,11.55
2023-04-09T13:22:38.607Z,11.64
2023-04-09T13:25:06.264Z,11.67
2023-04-09T13:27:33.697Z,11.74
2023-04-09T13:30:00.655Z,11.81
2023-04-09T13:32:28.143Z,11.67
2023-04-09T13:34:55.896Z,11.80
2023-04-09T13:37:23.197Z,11.95
2023-04-09T13:39:51.508Z,12.02
2023-04-09T13:42:19.186Z,12.09
2023-04-09T13:44:46.310Z,12.05
2023-04-09T13:47:16.073Z,12.02
2023-04-09T13:49:43.734Z,11.98
2023-04-09T13:52:11.714Z,11.95
2023-04-09T13:54:39.228Z,11.90
2023-04-09T13:57:07.120Z,12.01
2023-04-09T13:59:34.324Z,11.88
2023-04-09T14:02:02.039Z,11.98
2023-04-09T14:04:29.436Z,11.99
2023-04-09T14:06:57.950Z,12.07
2023-04-09T14:09:25.226Z,12.14
2023-04-09T14:11:54.808Z,12.16
2023-04-09T14:14:21.941Z,12.13
2023-04-09T14:16:50.454Z,12.10
2023-04-09T14:19:17.745Z,12.08
2023-04-09T14:21:45.387Z,12.11
2023-04-09T14:24:12.525Z,12.07
2023-04-09T14:26:39.914Z,12.11
2023-04-09T14:29:07.077Z,12.24
2023-04-09T14:31:34.506Z,12.30
2023-04-09T14:34:01.589Z,12.29
2023-04-09T14:36:29.186Z,12.30
2023-04-09T14:38:57.808Z,12.29
2023-04-09T14:41:26.367Z,12.27
2023-04-09T14:43:53.463Z,12.33
2023-04-09T14:46:20.710Z,12.37
2023-04-09T14:48:47.786Z,12.41
2023-04-09T14:51:15.163Z,12.39
2023-04-09T14:53:42.635Z,12.37
2023-04-09T14:56:09.953Z,12.39
2023-04-09T14:58:37.421Z,12.40
2023-04-09T15:01:05.041Z,12.41
2023-04-09T15:03:32.490Z,12.41
2023-04-09T15:05:59.915Z,12.41
2023-04-09T15:08:27.004Z,12.41
2023-04-09T15:10:54.399Z,12.36
2023-04-09T15:13:21.544Z,12.30
2023-04-09T15:15:48.949Z,12.25
2023-04-09T15:18:16.030Z,12.25
2023-04-09T15:20:43.660Z,12.23
2023-04-09T15:23:11.548Z,12.20
2023-04-09T15:25:39.456Z,12.22
2023-04-09T15:28:06.948Z,12.25
2023-04-09T15:30:35.795Z,12.21
2023-04-09T15:33:04.064Z,12.18
2023-04-09T15:35:31.968Z,12.17
2023-04-09T15:37:59.054Z,12.16
2023-04-09T15:40:26.522Z,12.11
2023-04-09T15:42:53.889Z,12.07
2023-04-09T15:45:21.287Z,12.08
2023-04-09T15:47:48.387Z,12.07
2023-04-09T15:50:15.826Z,12.09
2023-04-09T15:52:42.779Z,12.09
2023-04-09T15:55:10.746Z,12.08
2023-04-09T15:57:38.749Z,12.03
2023-04-09T16:00:10.966Z,12.02
2023-04-09T16:02:38.969Z,12.01
2023-04-09T16:05:07.495Z,11.92
2023-04-09T16:07:34.880Z,12.03
2023-04-09T16:10:02.689Z,12.07
2023-04-09T16:12:29.901Z,12.11
2023-04-09T16:14:57.178Z,12.11
2023-04-09T16:17:24.461Z,12.10
2023-04-09T16:19:51.938Z,12.09
2023-04-09T16:22:18.866Z,12.07
2023-04-09T16:24:46.224Z,12.08
2023-04-09T16:27:14.557Z,12.01
2023-04-09T16:29:42.207Z,11.98
2023-04-09T16:32:09.485Z,12.00
2023-04-09T16:34:36.788Z,11.99
2023-04-09T16:37:03.968Z,11.98
2023-04-09T16:39:31.697Z,11.99
2023-04-09T16:41:58.932Z,12.00
2023-04-09T16:44:26.301Z,12.00
2023-04-09T16:46:53.252Z,12.02
2023-04-09T16:49:20.416Z,12.02
2023-04-09T16:51:47.482Z,12.03
2023-04-09T16:54:14.709Z,12.07
2023-04-09T16:56:41.822Z,12.02
2023-04-09T16:59:09.069Z,12.01
2023-04-09T17:01:36.232Z,11.96
2023-04-09T17:04:03.793Z,11.91
2023-04-09T17:06:30.977Z,11.92
2023-04-09T17:08:58.279Z,11.88
2023-04-09T17:11:25.436Z,11.87
2023-04-09T17:13:54.188Z,11.86
2023-04-09T17:16:21.235Z,11.79
2023-04-09T17:18:48.822Z,11.81
2023-04-09T17:21:16.183Z,11.79
2023-04-09T17:23:44.244Z,11.75
2023-04-09T17:26:11.447Z,11.70
2023-04-09T17:28:38.780Z,11.69
2023-04-09T17:31:13.777Z,11.70
2023-04-09T17:33:42.325Z,11.73
2023-04-09T17:36:09.422Z,11.63
2023-04-09T17:38:36.815Z,11.61
2023-04-09T17:41:05.221Z,11.55
2023-04-09T17:43:34.308Z,11.53
2023-04-09T17:46:01.653Z,11.44
2023-04-09T17:48:31.468Z,11.40
2023-04-09T17:50:59.111Z,11.28
2023-04-09T17:53:27.155Z,11.16
2023-04-09T17:55:54.207Z,11.11
2023-04-09T17:58:21.767Z,11.04
2023-04-09T18:00:48.863Z,10.99
2023-04-09T18:03:18.089Z,10.90
2023-04-09T18:05:45.265Z,10.88
2023-04-09T18:08:12.732Z,10.81
2023-04-09T18:10:39.724Z,10.76
2023-04-09T18:13:07.161Z,10.67
2023-04-09T18:15:34.397Z,10.58
2023-04-09T18:18:01.974Z,10.54
2023-04-09T18:20:29.181Z,10.50
2023-04-09T18:22:56.744Z,10.46
2023-04-09T18:25:24.091Z,10.43
2023-04-09T18:27:51.487Z,10.35
2023-04-09T18:30:18.760Z,10.33
2023-04-09T18:32:48.298Z,10.33
2023-04-09T18:35:15.657Z,10.36
2023-04-09T18:37:43.076Z,10.32
2023-04-09T18:40:13.892Z,10.29
2023-04-09T18:42:41.356Z,10.25
2023-04-09T18:45:09.132Z,10.22
2023-04-09T18:47:37.321Z,10.20
2023-04-09T18:50:04.733Z,10.22
2023-04-09T18:52:32.477Z,10.17
2023-04-09T18:54:59.482Z,10.17
2023-04-09T18:57:27.303Z,10.15
2023-04-09T18:59:54.329Z,10.12
2023-04-09T19:02:21.816Z,10.11
2023-04-09T19:04:48.986Z,10.19
2023-04-09T19:07:17.197Z,10.21
2023-04-09T19:09:44.632Z,10.21
2023-04-09T19:12:11.954Z,10.21
2023-04-09T19:14:40.373Z,10.19
2023-04-09T19:17:07.953Z,10.16
2023-04-09T19:19:35.517Z,10.16
2023-04-09T19:22:02.928Z,10.15
2023-04-09T19:24:30.093Z,10.15
2023-04-09T19:26:57.421Z,10.15
2023-04-09T19:29:24.759Z,10.13
2023-04-09T19:31:52.196Z,10.12
2023-04-09T19:34:19.307Z,10.13
2023-04-09T19:36:46.632Z,10.14
2023-04-09T19:39:13.678Z,10.16
2023-04-09T19:41:41.107Z,10.14
2023-04-09T19:44:09.222Z,10.13
2023-04-09T19:46:36.554Z,10.14
2023-04-09T19:49:03.744Z,10.16
2023-04-09T19:51:31.729Z,10.17
2023-04-09T19:53:58.771Z,10.18
2023-04-09T19:56:26.118Z,10.19
2023-04-09T19:58:53.296Z,10.19
2023-04-09T20:01:20.868Z,10.20
2023-04-09T20:03:48.765Z,10.22
2023-04-09T20:06:16.382Z,10.22
2023-04-09T20:08:43.369Z,10.23
2023-04-09T20:11:17.504Z,10.23
2023-04-09T20:13:45.390Z,10.21
2023-04-09T20:16:12.823Z,10.20
2023-04-09T20:18:41.014Z,10.18
2023-04-09T20:21:08.960Z,10.16
2023-04-09T20:23:36.496Z,10.18
2023-04-09T20:26:03.894Z,10.16
2023-04-09T20:28:31.021Z,10.20
2023-04-09T20:30:58.519Z,10.20
2023-04-09T20:33:26.083Z,10.19
2023-04-09T20:35:53.377Z,10.19
2023-04-09T20:38:21.613Z,10.19
2023-04-09T20:40:48.941Z,10.18
2023-04-09T20:43:16.720Z,10.19
2023-04-09T20:45:44.147Z,10.19
2023-04-09T20:48:12.016Z,10.20
2023-04-09T20:50:39.341Z,10.20
2023-04-09T20:53:06.655Z,10.20
2023-04-09T20:55:33.854Z,10.19
2023-04-09T20:58:00.817Z,10.18
2023-04-09T21:00:28.103Z,10.17
2023-04-09T21:02:55.298Z,10.17
2023-04-09T21:05:24.211Z,10.16
2023-04-09T21:07:53.104Z,10.18
2023-04-09T21:10:20.934Z,10.16
2023-04-09T21:12:48.365Z,10.17
2023-04-09T21:15:16.020Z,10.15
2023-04-09T21:17:43.163Z,10.17
2023-04-09T21:20:11.366Z,10.17
2023-04-09T21:22:38.392Z,10.18
2023-04-09T21:25:06.568Z,10.18
2023-04-09T21:27:33.807Z,10.18
2023-04-09T21:30:01.208Z,10.19
2023-04-09T21:32:28.257Z,10.21
2023-04-09T21:34:55.534Z,10.22
2023-04-09T21:37:22.754Z,10.24
2023-04-09T21:39:50.279Z,10.24
2023-04-09T21:42:17.458Z,10.25
2023-04-09T21:44:44.801Z,10.28
2023-04-09T21:47:12.366Z,10.30
2023-04-09T21:49:40.748Z,10.31
2023-04-09T21:52:14.335Z,10.31
2023-04-09T21:54:42.839Z,10.31
2023-04-09T21:57:11.322Z,10.30
2023-04-09T21:59:41.129Z,10.29
2023-04-09T22:02:09.548Z,10.31
2023-04-09T22:04:37.525Z,10.29
2023-04-09T22:07:04.795Z,10.28
2023-04-09T22:09:32.060Z,10.28
2023-04-09T22:11:59.749Z,10.29
2023-04-09T22:14:29.536Z,10.26
2023-04-09T22:16:58.535Z,10.26
2023-04-09T22:19:31.359Z,10.26
2023-04-09T22:21:58.959Z,10.24
2023-04-09T22:24:30.427Z,10.24
2023-04-09T22:27:01.470Z,10.24
2023-04-09T22:29:30.613Z,10.23
2023-04-09T22:31:58.144Z,10.23
2023-04-09T22:34:27.660Z,10.21
2023-04-09T22:36:54.679Z,10.21
2023-04-09T22:39:22.152Z,10.20
2023-04-09T22:41:49.159Z,10.18
2023-04-09T22:44:16.632Z,10.15
2023-04-09T22:46:43.761Z,10.13
2023-04-09T22:49:11.724Z,10.13
2023-04-09T22:51:41.318Z,10.12
2023-04-09T22:54:09.952Z,10.10
2023-04-09T22:56:37.154Z,10.07
2023-04-09T22:59:04.559Z,10.05
2023-04-09T23:01:32.704Z,10.07
2023-04-09T23:04:00.049Z,10.09
2023-04-09T23:06:31.071Z,10.10
2023-04-09T23:08:59.999Z,10.09
2023-04-09T23:11:27.427Z,10.11
2023-04-09T23:13:54.676Z,10.12
2023-04-09T23:16:22.005Z,10.11
2023-04-09T23:18:51.306Z,10.12
2023-04-09T23:21:21.605Z,10.13
2023-04-09T23:23:51.837Z,10.15
2023-04-09T23:26:19.267Z,10.16
2023-04-09T23:28:46.591Z,10.16
2023-04-09T23:31:13.811Z,10.17
2023-04-09T23:33:41.203Z,10.15
2023-04-09T23:36:08.763Z,10.13
2023-04-09T23:38:36.175Z,10.11
2023-04-09T23:41:03.383Z,10.11
2023-04-09T23:43:30.741Z,10.09
2023-04-09T23:45:57.831Z,10.07
2023-04-09T23:48:25.948Z,10.07
2023-04-09T23:50:53.200Z,10.07
2023-04-09T23:53:21.346Z,10.09
2023-04-09T23:55:50.095Z,10.09
2023-04-09T23:58:17.734Z,10.09
